createdAt,value
2022-08-19T00:01:56.750Z,100262.25
2022-08-19T00:04:29.725Z,100268.25
2022-08-19T00:06:58.889Z,100270.88
2022-08-19T00:09:29.245Z,100267.66
2022-08-19T00:12:00.592Z,100259.03
2022-08-19T00:14:32.978Z,100266.09
2022-08-19T00:17:04.419Z,100265.16
2022-08-19T00:19:35.075Z,100263.38
2022-08-19T00:22:04.620Z,100268.72
2022-08-19T00:24:33.720Z,100272.44
2022-08-19T00:27:25.043Z,100268.13
2022-08-19T00:29:52.481Z,100269.94
2022-08-19T00:32:22.180Z,100277.81
2022-08-19T00:34:54.605Z,100268.97
2022-08-19T00:37:24.347Z,100271.84
2022-08-19T00:39:53.408Z,100266.81
2022-08-19T00:42:24.034Z,100273.03
2022-08-19T00:44:52.974Z,100263.50
2022-08-19T00:47:21.694Z,100276.63
2022-08-19T00:49:54.824Z,100273.28
2022-08-19T00:52:26.696Z,100283.03
2022-08-19T00:54:56.054Z,100286.28
2022-08-19T00:57:29.475Z,100283.78
2022-08-19T01:00:02.478Z,100286.53
2022-08-19T01:02:33.314Z,100289.03
2022-08-19T01:05:07.584Z,100290.84
2022-08-19T01:07:42.804Z,100284.81
2022-08-19T01:10:19.545Z,100295.72
2022-08-19T01:12:49.281Z,100290.47
2022-08-19T01:15:23.664Z,100286.03
2022-08-19T01:17:53.064Z,100285.59
2022-08-19T01:20:25.734Z,100281.16
2022-08-19T01:22:58.134Z,100289.25
2022-08-19T01:25:31.945Z,100287.59
2022-08-19T01:28:10.590Z,100286.63
2022-08-19T01:30:39.930Z,100290.00
2022-08-19T01:33:14.684Z,100294.50
2022-08-19T01:35:44.045Z,100285.06
2022-08-19T01:38:23.884Z,100286.75
2022-08-19T01:40:52.965Z,100284.22
2022-08-19T01:43:22.026Z,100279.09
2022-08-19T01:45:52.174Z,100278.16
2022-08-19T01:48:20.794Z,100279.94
2022-08-19T01:50:49.725Z,100283.41
2022-08-19T01:53:19.644Z,100278.16
2022-08-19T01:55:49.815Z,100275.50
2022-08-19T01:58:25.174Z,100274.78
2022-08-19T02:00:53.814Z,100271.47
2022-08-19T02:03:22.309Z,100272.41
2022-08-19T02:05:56.236Z,100268.94
2022-08-19T02:08:26.515Z,100271.69
2022-08-19T02:10:55.204Z,100277.88
2022-08-19T02:13:26.467Z,100279.69
2022-08-19T02:15:55.644Z,100286.72
2022-08-19T02:18:28.057Z,100283.38
2022-08-19T02:20:56.734Z,100285.16
2022-08-19T02:23:28.464Z,100279.91
2022-08-19T02:25:57.387Z,100281.81
2022-08-19T02:28:25.984Z,100288.88
2022-08-19T02:30:54.554Z,100287.06
2022-08-19T02:33:23.155Z,100283.50
2022-08-19T02:35:51.705Z,100284.56
2022-08-19T02:38:28.375Z,100280.38
2022-08-19T02:41:00.605Z,100288.16
2022-08-19T02:43:33.803Z,100285.63
2022-08-19T02:46:04.024Z,100290.66
2022-08-19T02:48:34.137Z,100288.16
2022-08-19T02:51:02.726Z,100281.34
2022-08-19T02:53:31.755Z,100283.97
2022-08-19T02:56:01.895Z,100291.84
2022-08-19T02:58:30.494Z,100292.09
2022-08-19T03:00:59.877Z,100298.06
2022-08-19T03:03:29.054Z,100292.81
2022-08-19T03:06:09.273Z,100288.50
2022-08-19T03:08:38.306Z,100286.69
2022-08-19T03:11:08.854Z,100289.34
2022-08-19T03:13:37.364Z,100287.81
2022-08-19T03:16:08.325Z,100290.28
2022-08-19T03:18:36.884Z,100290.28
2022-08-19T03:21:07.474Z,100292.19
2022-08-19T03:23:41.517Z,100286.34
2022-08-19T03:26:16.373Z,100293.38
2022-08-19T03:28:47.674Z,100294.34
2022-08-19T03:31:41.697Z,100294.34
2022-08-19T03:34:13.650Z,100295.28
2022-08-19T03:36:42.535Z,100294.81
2022-08-19T03:39:12.655Z,100300.75
2022-08-19T03:41:48.328Z,100303.38
2022-08-19T03:44:21.802Z,100299.94
2022-08-19T03:46:51.924Z,100303.38
2022-08-19T03:49:21.205Z,100301.13
2022-08-19T03:51:57.724Z,100297.53
2022-08-19T03:54:27.351Z,100292.28
2022-08-19T03:56:58.529Z,100285.38
2022-08-19T03:59:29.380Z,100286.34
2022-08-19T04:02:00.299Z,100287.41
2022-08-19T04:04:29.074Z,100280.34
2022-08-19T04:06:58.899Z,100296.09
2022-08-19T04:09:28.209Z,100288.13
2022-08-19T04:12:00.073Z,100285.00
2022-08-19T04:14:31.879Z,100283.09
2022-08-19T04:17:01.550Z,100291.69
2022-08-19T04:19:32.440Z,100290.84
2022-08-19T04:22:00.972Z,100298.00
2022-08-19T04:24:30.319Z,100298.00
2022-08-19T04:27:02.099Z,100301.59
2022-08-19T04:29:31.419Z,100308.72
2022-08-19T04:32:09.406Z,100299.91
2022-08-19T04:35:02.640Z,100305.19
2022-08-19T04:37:35.030Z,100300.16
2022-08-19T04:40:23.869Z,100304.66
2022-08-19T04:42:55.068Z,100303.72
2022-08-19T04:45:23.927Z,100300.38
2022-08-19T04:47:58.940Z,100311.59
2022-08-19T04:50:46.321Z,100309.91
2022-08-19T04:53:14.869Z,100309.09
2022-08-19T04:55:44.449Z,100309.81
2022-08-19T04:58:14.409Z,100310.66
2022-08-19T05:00:43.046Z,100307.28
2022-08-19T05:03:11.620Z,100308.13
2022-08-19T05:05:44.716Z,100315.16
2022-08-19T05:08:15.309Z,100312.44
2022-08-19T05:10:45.769Z,100316.97
2022-08-19T05:13:15.789Z,100313.75
2022-08-19T05:15:44.530Z,100318.16
2022-08-19T05:18:30.628Z,100321.63
2022-08-19T05:21:16.120Z,100326.03
2022-08-19T05:23:45.671Z,100322.44
2022-08-19T05:26:14.134Z,100314.69
2022-08-19T05:28:43.999Z,100319.94
2022-08-19T05:31:13.290Z,100319.09
2022-08-19T05:33:42.019Z,100320.03
2022-08-19T05:36:10.550Z,100317.41
2022-08-19T05:38:39.050Z,100322.66
2022-08-19T05:41:10.371Z,100320.88
2022-08-19T05:43:39.526Z,100324.34
2022-08-19T05:46:09.949Z,100323.50
2022-08-19T05:48:38.539Z,100334.00
2022-08-19T05:51:08.220Z,100339.25
2022-08-19T05:53:37.548Z,100341.88
2022-08-19T05:56:08.080Z,100341.19
2022-08-19T05:58:37.571Z,100336.84
2022-08-19T06:01:07.079Z,100339.47
2022-08-19T06:03:38.609Z,100346.53
2022-08-19T06:06:07.549Z,100355.25
2022-08-19T06:08:37.450Z,100353.34
2022-08-19T06:11:20.805Z,100356.94
2022-08-19T06:13:52.189Z,100356.06
2022-08-19T06:16:29.020Z,100355.13
2022-08-19T06:19:02.299Z,100361.22
2022-08-19T06:21:32.410Z,100356.94
2022-08-19T06:24:01.881Z,100356.72
2022-08-19T06:26:30.579Z,100352.38
2022-08-19T06:28:59.819Z,100350.50
2022-08-19T06:31:32.505Z,100348.69
2022-08-19T06:34:04.043Z,100344.28
2022-08-19T06:36:35.501Z,100350.28
2022-08-19T06:39:05.622Z,100350.16
2022-08-19T06:41:39.463Z,100345.72
2022-08-19T06:44:13.290Z,100358.63
2022-08-19T06:46:42.942Z,100371.53
2022-08-19T06:49:15.209Z,100367.53
2022-08-19T06:51:47.550Z,100370.84
2022-08-19T06:54:20.069Z,100373.38
2022-08-19T06:56:49.371Z,100378.50
2022-08-19T06:59:19.594Z,100382.81
2022-08-19T07:01:50.830Z,100378.28
2022-08-19T07:04:22.491Z,100375.31
2022-08-19T07:06:55.281Z,100378.28
2022-08-19T07:09:24.249Z,100375.66
2022-08-19T07:11:54.689Z,100385.31
2022-08-19T07:14:27.810Z,100387.63
2022-08-19T07:16:59.220Z,100396.44
2022-08-19T07:19:29.652Z,100399.78
2022-08-19T07:21:58.190Z,100405.06
2022-08-19T07:24:28.622Z,100405.88
2022-08-19T07:27:04.449Z,100410.31
2022-08-19T07:29:39.179Z,100417.22
2022-08-19T07:32:11.724Z,100417.72
2022-08-19T07:34:43.410Z,100421.78
2022-08-19T07:37:12.240Z,100420.13
2022-08-19T07:39:41.870Z,100417.72
2022-08-19T07:42:13.194Z,100408.19
2022-08-19T07:44:43.085Z,100414.28
2022-08-19T07:47:49.137Z,100418.69
2022-08-19T07:50:12.834Z,100415.34
2022-08-19T07:52:41.749Z,100419.63
2022-08-19T07:55:42.262Z,100427.50
2022-08-19T07:58:00.255Z,100425.84
2022-08-19T08:00:29.165Z,100421.31
2022-08-19T08:02:57.682Z,100423.94
2022-08-19T08:05:45.026Z,100444.00
2022-08-19T08:08:31.075Z,100443.03
2022-08-19T08:11:01.227Z,100442.81
2022-08-19T08:13:30.324Z,100453.31
2022-08-19T08:15:59.274Z,100442.81
2022-08-19T08:18:30.424Z,100445.44
2022-08-19T08:21:01.278Z,100431.34
2022-08-19T08:23:31.395Z,100441.53
2022-08-19T08:26:00.564Z,100438.78
2022-08-19T08:28:30.916Z,100431.75
2022-08-19T08:31:00.345Z,100427.94
2022-08-19T08:33:33.686Z,100429.72
2022-08-19T08:36:06.824Z,100429.97
2022-08-19T08:38:43.008Z,100431.75
2022-08-19T08:41:20.923Z,100435.44
2022-08-19T08:43:53.300Z,100426.13
2022-08-19T08:46:31.579Z,100430.97
2022-08-19T08:49:06.924Z,100431.69
2022-08-19T08:54:17.938Z,100449.38
2022-08-19T08:56:48.405Z,100439.59
2022-08-19T08:59:25.834Z,100447.34
2022-08-19T09:01:54.536Z,100440.56
2022-08-19T09:04:23.887Z,100440.59
2022-08-19T09:07:18.232Z,100433.44
2022-08-19T09:09:56.186Z,100429.47
2022-08-19T09:12:35.525Z,100428.75
2022-08-19T09:15:09.194Z,100430.78
2022-08-19T09:17:39.667Z,100439.03
2022-08-19T09:20:21.434Z,100428.66
2022-08-19T09:22:51.934Z,100432.56
2022-08-19T09:25:26.754Z,100429.34
2022-08-19T09:28:02.391Z,100422.53
2022-08-19T09:30:31.674Z,100423.84
2022-08-19T09:33:02.274Z,100422.91
2022-08-19T09:35:32.055Z,100428.16
2022-08-19T09:38:20.155Z,100431.38
2022-08-19T09:40:48.615Z,100429.59
2022-08-19T09:43:32.952Z,100430.53
2022-08-19T09:46:03.004Z,100425.66
2022-08-19T09:48:31.474Z,100429.72
2022-08-19T09:51:06.344Z,100423.28
2022-08-19T09:53:36.264Z,100426.16
2022-08-19T09:56:08.305Z,100430.56
2022-08-19T09:58:38.414Z,100437.25
2022-08-19T10:01:08.237Z,100427.09
2022-08-19T10:03:38.976Z,100416.00
2022-08-19T10:06:15.120Z,100416.47
2022-08-19T10:08:50.208Z,100413.84
2022-08-19T10:11:27.371Z,100421.00
2022-08-19T10:14:03.565Z,100416.81
2022-08-19T10:16:32.844Z,100416.94
2022-08-19T10:19:08.144Z,100422.09
2022-08-19T10:21:36.764Z,100417.06
2022-08-19T10:24:09.344Z,100414.44
2022-08-19T10:26:43.173Z,100411.31
2022-08-19T10:29:12.845Z,100417.56
2022-08-19T10:32:00.546Z,100419.34
2022-08-19T10:34:31.903Z,100418.16
2022-08-19T10:37:01.896Z,100419.72
2022-08-19T10:39:42.415Z,100422.34
2022-08-19T10:42:14.362Z,100430.47
2022-08-19T10:44:43.545Z,100425.91
2022-08-19T10:47:24.415Z,100419.47
2022-08-19T10:50:13.401Z,100422.94
2022-08-19T10:52:49.054Z,100424.09
2022-08-19T10:55:39.251Z,100422.69
2022-08-19T10:58:12.903Z,100428.06
2022-08-19T11:00:42.234Z,100418.38
2022-08-19T11:03:11.113Z,100416.94
2022-08-19T11:05:40.684Z,100408.19
2022-08-19T11:08:23.131Z,100408.34
2022-08-19T11:11:00.413Z,100407.16
2022-08-19T11:13:29.743Z,100412.16
2022-08-19T11:16:07.390Z,100406.91
2022-08-19T11:18:38.523Z,100403.56
2022-08-19T11:21:15.954Z,100397.09
2022-08-19T11:23:44.554Z,100406.66
2022-08-19T11:26:15.089Z,100406.53
2022-08-19T11:29:06.524Z,100404.38
2022-08-19T11:34:33.954Z,100412.97
2022-08-19T11:37:10.187Z,100421.00
2022-08-19T11:39:39.290Z,100430.78
2022-08-19T11:42:23.974Z,100415.00
2022-08-19T11:45:58.454Z,100424.56
2022-08-19T11:48:53.352Z,100423.50
2022-08-19T11:51:25.824Z,100416.19
2022-08-19T11:53:59.599Z,100423.03
2022-08-19T11:57:04.034Z,100408.81
2022-08-19T11:59:36.626Z,100417.66
2022-08-19T12:02:05.693Z,100414.06
2022-08-19T12:04:34.124Z,100409.53
2022-08-19T12:07:03.113Z,100417.53
2022-08-19T12:10:25.867Z,100420.88
2022-08-19T12:13:04.574Z,100420.06
2022-08-19T12:15:38.253Z,100421.59
2022-08-19T12:18:07.613Z,100424.22
2022-08-19T12:20:38.334Z,100422.44
2022-08-19T12:23:08.633Z,100425.19
2022-08-19T12:25:37.335Z,100426.00
2022-08-19T12:28:06.445Z,100419.81
2022-08-19T12:30:39.934Z,100426.84
2022-08-19T12:33:09.005Z,100416.47
2022-08-19T12:35:45.788Z,100412.88
2022-08-19T12:38:28.985Z,100426.00
2022-08-19T12:41:08.884Z,100432.25
2022-08-19T12:43:40.758Z,100440.00
2022-08-19T12:46:14.635Z,100446.94
2022-08-19T12:48:46.045Z,100454.84
2022-08-19T12:51:17.264Z,100439.53
2022-08-19T12:53:46.875Z,100443.97
2022-08-19T12:56:20.070Z,100441.31
2022-08-19T12:58:52.900Z,100445.53
2022-08-19T13:01:24.034Z,100432.25
2022-08-19T13:03:55.075Z,100434.75
2022-08-19T13:06:24.499Z,100436.44
2022-08-19T13:08:57.740Z,100442.41
2022-08-19T13:11:28.386Z,100450.91
2022-08-19T13:13:57.523Z,100458.56
2022-08-19T13:16:29.064Z,100447.59
2022-08-19T13:18:59.209Z,100443.50
2022-08-19T13:21:31.213Z,100442.88
2022-08-19T13:24:00.614Z,100438.00
2022-08-19T13:26:29.314Z,100420.28
2022-08-19T13:29:15.464Z,100427.84
2022-08-19T13:32:02.955Z,100420.28
2022-08-19T13:34:36.934Z,100421.25
2022-08-19T13:37:08.849Z,100432.16
2022-08-19T13:39:38.250Z,100416.25
2022-08-19T13:42:08.505Z,100418.88
2022-08-19T13:44:37.454Z,100425.31
2022-08-19T13:47:08.874Z,100421.25
2022-08-19T13:49:38.665Z,100422.09
2022-08-19T13:52:10.564Z,100423.44
2022-08-19T13:54:42.446Z,100424.59
2022-08-19T13:57:11.264Z,100434.75
2022-08-19T13:59:40.575Z,100417.56
2022-08-19T14:02:14.625Z,100406.16
2022-08-19T14:04:43.445Z,100415.94
2022-08-19T14:07:12.670Z,100414.06
2022-08-19T14:09:41.494Z,100422.69
2022-08-19T14:12:11.179Z,100413.72
2022-08-19T14:14:40.739Z,100413.47
2022-08-19T14:17:12.181Z,100422.56
2022-08-19T14:19:42.580Z,100406.19
2022-08-19T14:22:22.128Z,100416.44
2022-08-19T14:24:51.517Z,100416.69
2022-08-19T14:27:20.149Z,100427.34
2022-08-19T14:29:48.804Z,100428.69
2022-08-19T14:32:18.929Z,100424.47
2022-08-19T14:34:47.850Z,100424.69
2022-08-19T14:37:16.765Z,100427.06
2022-08-19T14:39:46.267Z,100420.47
2022-08-19T14:42:16.095Z,100422.47
2022-08-19T14:44:55.109Z,100412.75
2022-08-19T14:48:01.225Z,100421.88
2022-08-19T14:50:38.544Z,100418.44
2022-08-19T14:53:12.545Z,100415.47
2022-08-19T14:55:45.465Z,100412.97
2022-08-19T14:58:29.026Z,100414.97
2022-08-19T15:01:00.950Z,100416.75
2022-08-19T15:03:32.754Z,100410.97
2022-08-19T15:06:03.274Z,100410.84
2022-08-19T15:08:33.907Z,100407.72
2022-08-19T15:11:03.394Z,100405.31
2022-08-19T15:13:32.474Z,100426.66
2022-08-19T15:20:53.146Z,100413.44
2022-08-19T15:24:31.279Z,100420.75
2022-08-19T15:27:00.184Z,100417.78
2022-08-19T15:29:28.878Z,100427.16
2022-08-19T15:31:58.334Z,100415.88
2022-08-19T15:34:28.164Z,100417.25
2022-08-19T15:37:00.177Z,100429.59
2022-08-19T15:39:28.734Z,100426.22
2022-08-19T15:41:57.254Z,100425.25
2022-08-19T15:44:25.885Z,100420.31
2022-08-19T15:47:11.760Z,100410.84
2022-08-19T15:50:00.554Z,100410.00
2022-08-19T15:53:03.775Z,100412.25
2022-08-19T15:55:35.526Z,100421.53
2022-08-19T15:58:29.289Z,100423.94
2022-08-19T16:01:20.470Z,100422.88
2022-08-19T16:04:14.669Z,100417.03
2022-08-19T16:06:47.394Z,100424.00
2022-08-19T16:09:17.217Z,100423.13
2022-08-19T16:11:56.546Z,100420.97
2022-08-19T16:14:26.594Z,100415.56
2022-08-19T16:16:58.162Z,100426.91
2022-08-19T16:19:27.686Z,100425.97
2022-08-19T16:21:58.295Z,100430.63
2022-08-19T16:24:29.466Z,100427.53
2022-08-19T16:27:21.970Z,100430.28
2022-08-19T16:30:35.464Z,100427.44
2022-08-19T16:33:26.336Z,100435.72
2022-08-19T16:39:49.400Z,100440.38
2022-08-19T16:42:19.576Z,100441.66
2022-08-19T16:44:48.165Z,100439.72
2022-08-19T16:47:18.264Z,100443.91
2022-08-19T16:49:53.817Z,100441.28
2022-08-19T16:55:29.645Z,100449.13
2022-08-19T16:58:02.345Z,100446.81
2022-08-19T17:00:32.754Z,100445.22
2022-08-19T17:03:15.418Z,100450.75
2022-08-19T17:05:52.195Z,100443.91
2022-08-19T17:08:30.280Z,100450.66
2022-08-19T17:11:17.005Z,100452.84
2022-08-19T17:13:49.605Z,100460.06
2022-08-19T17:16:18.345Z,100452.19
2022-08-19T17:18:53.144Z,100459.63
2022-08-19T17:21:22.185Z,100471.03
2022-08-19T17:23:51.105Z,100470.38
2022-08-19T17:26:19.984Z,100466.84
2022-08-19T17:28:51.764Z,100474.25
2022-08-19T17:31:23.331Z,100495.00
2022-08-19T17:33:52.484Z,100498.13
2022-08-19T17:36:25.627Z,100500.88
2022-08-19T17:38:56.094Z,100496.06
2022-08-19T17:41:25.264Z,100507.56
2022-08-19T17:43:56.440Z,100509.38
2022-08-19T17:46:25.124Z,100503.88
2022-08-19T17:48:57.808Z,100511.78
2022-08-19T17:51:40.625Z,100506.50
2022-08-19T17:54:12.336Z,100514.41
2022-08-19T17:56:41.984Z,100512.72
2022-08-19T17:59:14.164Z,100530.47
2022-08-19T18:01:53.902Z,100524.34
2022-08-19T18:04:25.197Z,100519.19
2022-08-19T18:06:55.619Z,100515.97
2022-08-19T18:09:26.749Z,100518.00
2022-08-19T18:11:57.207Z,100527.81
2022-08-19T18:14:33.966Z,100524.50
2022-08-19T18:17:06.365Z,100521.97
2022-08-19T18:19:40.750Z,100522.94
2022-08-19T18:22:12.564Z,100515.03
2022-08-19T18:24:41.889Z,100520.31
2022-08-19T18:27:11.344Z,100520.31
2022-08-19T18:29:41.324Z,100524.50
2022-08-19T18:32:13.643Z,100524.59
2022-08-19T18:34:43.632Z,100523.53
2022-08-19T18:37:12.508Z,100528.41
2022-08-19T18:39:58.337Z,100527.25
2022-08-19T18:42:44.444Z,100530.56
2022-08-19T18:45:31.744Z,100523.63
2022-08-19T18:48:27.368Z,100524.84
2022-08-19T18:50:58.994Z,100523.03
2022-08-19T18:53:29.625Z,100526.38
2022-08-19T18:55:58.346Z,100524.94
2022-08-19T18:58:32.522Z,100511.19
2022-08-19T19:01:11.473Z,100515.88
2022-08-19T19:03:44.526Z,100515.03
2022-08-19T19:06:16.325Z,100515.16
2022-08-19T19:08:45.276Z,100523.03
2022-08-19T19:11:15.625Z,100525.81
2022-08-19T19:13:47.175Z,100524.13
2022-08-19T19:16:23.709Z,100527.97
2022-08-19T19:18:53.224Z,100522.59
2022-08-19T19:21:25.592Z,100517.69
2022-08-19T19:23:55.754Z,100523.44
2022-08-19T19:26:24.544Z,100519.00
2022-08-19T19:28:53.414Z,100522.59
2022-08-19T19:31:26.976Z,100513.13
2022-08-19T19:33:56.912Z,100521.16
2022-08-19T19:36:25.745Z,100519.38
2022-08-19T19:38:54.686Z,100521.28
2022-08-19T19:41:24.887Z,100527.50
2022-08-19T19:44:09.914Z,100524.16
2022-08-19T19:46:44.015Z,100527.88
2022-08-19T19:49:12.914Z,100528.47
2022-08-19T19:51:42.104Z,100537.56
2022-08-19T19:54:14.224Z,100542.09
2022-08-19T19:56:43.795Z,100533.59
2022-08-19T19:59:12.664Z,100543.16
2022-08-19T20:01:47.094Z,100548.44
2022-08-19T20:04:20.110Z,100545.94
2022-08-19T20:06:48.819Z,100546.16
2022-08-19T20:09:19.938Z,100544.56
2022-08-19T20:11:53.736Z,100549.09
2022-08-19T20:14:25.335Z,100547.69
2022-08-19T20:16:56.899Z,100554.75
2022-08-19T20:19:28.100Z,100555.69
2022-08-19T20:21:57.694Z,100559.41
2022-08-19T20:24:34.985Z,100559.41
2022-08-19T20:27:05.551Z,100566.47
2022-08-19T20:29:40.051Z,100570.03
2022-08-19T20:32:11.974Z,100573.41
2022-08-19T20:34:41.592Z,100569.31
2022-08-19T20:37:10.295Z,100570.25
2022-08-19T20:39:39.824Z,100557.97
2022-08-19T20:42:08.869Z,100558.06
2022-08-19T20:44:39.202Z,100550.19
2022-08-19T20:47:08.199Z,100545.97
2022-08-19T20:49:40.199Z,100540.72
2022-08-19T20:52:09.260Z,100536.53
2022-08-19T20:54:37.879Z,100535.81
2022-08-19T20:57:06.449Z,100542.00
2022-08-19T20:59:35.699Z,100543.72
2022-08-19T21:02:04.299Z,100545.50
2022-08-19T21:04:33.329Z,100541.09
2022-08-19T21:07:03.645Z,100535.09
2022-08-19T21:09:32.255Z,100549.22
2022-08-19T21:12:01.030Z,100549.31
2022-08-19T21:14:29.845Z,100550.28
2022-08-19T21:16:58.459Z,100549.44
2022-08-19T21:19:27.130Z,100545.75
2022-08-19T21:21:59.586Z,100543.13
2022-08-19T21:24:32.078Z,100542.25
2022-08-19T21:27:01.543Z,100538.09
2022-08-19T21:29:54.659Z,100540.81
2022-08-19T21:32:27.191Z,100540.81
2022-08-19T21:35:01.590Z,100539.38
2022-08-19T21:37:34.131Z,100539.38
2022-08-19T21:40:14.319Z,100537.81
2022-08-19T21:42:52.825Z,100534.34
2022-08-19T21:45:26.400Z,100538.78
2022-08-19T21:47:59.110Z,100538.78
2022-08-19T21:50:29.385Z,100540.44
2022-08-19T21:52:59.050Z,100541.41
2022-08-19T21:55:30.800Z,100536.25
2022-08-19T21:58:00.560Z,100545.94
2022-08-19T22:00:32.238Z,100542.47
2022-08-19T22:03:01.533Z,100546.06
2022-08-19T22:05:31.639Z,100543.53
2022-08-19T22:08:01.450Z,100543.66
2022-08-19T22:10:35.980Z,100545.56
2022-08-19T22:13:05.375Z,100542.19
2022-08-19T22:15:34.210Z,100534.44
2022-08-19T22:18:03.178Z,100531.06
2022-08-19T22:20:33.370Z,100526.66
2022-08-19T22:23:07.421Z,100522.13
2022-08-19T22:25:40.191Z,100531.81
2022-08-19T22:28:13.889Z,100522.84
2022-08-19T22:30:44.110Z,100528.94
2022-08-19T22:33:23.105Z,100521.06
2022-08-19T22:36:05.839Z,100523.69
2022-08-19T22:38:36.740Z,100532.50
2022-08-19T22:41:11.932Z,100522.97
2022-08-19T22:43:45.760Z,100522.00
2022-08-19T22:46:17.695Z,100522.13
2022-08-19T22:49:01.007Z,100516.72
2022-08-19T22:51:49.860Z,100512.34
2022-08-19T22:54:19.556Z,100516.13
2022-08-19T22:56:52.375Z,100513.72
2022-08-19T22:59:21.715Z,100516.59
2022-08-19T23:01:51.080Z,100515.88
2022-08-19T23:04:20.269Z,100510.72
2022-08-19T23:06:49.060Z,100517.03
2022-08-19T23:09:18.249Z,100519.56
2022-08-19T23:11:54.139Z,100516.22
2022-08-19T23:14:24.060Z,100509.28
2022-08-19T23:16:56.966Z,100510.34
2022-08-19T23:19:27.340Z,100516.56
2022-08-19T23:21:56.396Z,100508.69
2022-08-19T23:24:24.919Z,100509.66
2022-08-19T23:27:12.489Z,100509.75
2022-08-19T23:29:58.089Z,100498.41
2022-08-19T23:32:26.994Z,100497.56
2022-08-19T23:34:57.489Z,100490.59
2022-08-19T23:37:28.699Z,100489.78
2022-08-19T23:39:57.486Z,100488.94
2022-08-19T23:42:27.520Z,100484.50
2022-08-19T23:45:02.319Z,100495.03
2022-08-19T23:47:32.702Z,100490.72
2022-08-19T23:50:02.209Z,100489.91
2022-08-19T23:52:30.891Z,100487.38
2022-08-19T23:55:02.644Z,100486.53
2022-08-19T23:57:32.620Z,100487.38
